Adams, Illinois
Current Conditions -  °F | °C
As of 11:54 AM on Tuesday 21 Oct 2014 (Local Time) from KUIN Reporting Station
Clear Clear  
Wind Chill: 15°   Ceiling: Unl
Heat Index: 15°   Visibility: 10mi
Dew Point:   Wind: 9mph
Humidity: 51%   Direction: 90°E
Pressure: 30.16"   Gusts: NA
Location:  39.8875°N, 91.0352°W
Report Text: KUIN 211654Z AUTO 09008KT 10SM CLR 15/05 A3016 RMK AO2 SLP213 T01500050
Loading
Personal Weather Stations






























Interactive Weather Map New forecast layout! Learn more

10-Day Weather Forecast

Advertisements
Track Severe Weather on mobile